Amba, Kentucky
Current Conditions -  °F | °C
As of 7:55 AM on Saturday 25 Oct 2014 (Local Time) from KPBX Reporting Station
Haze Haze  
Wind Chill:   Ceiling: 100
Heat Index:   Visibility: 1mi
Dew Point:   Wind: 5mph
Humidity: 99%   Direction: 170°S
Pressure: 30.08"   Gusts: NA
Location:  37.4843°N, 82.6492°W
Report Text: KPBX 251155Z AUTO 17004KT 1SM BR OVC001 04/04 A3008 RMK AO2 T00400038 10075 20037
Loading
Personal Weather Stations






























Interactive Weather Map
Tropical Storm Tracking
New forecast layout! Learn more

10-Day Weather Forecast

Advertisements
Track Severe Weather on mobile